createdAt,value
2019-05-22T00:02:22.053Z,12.6
2019-05-22T00:07:09.010Z,12.7
2019-05-22T00:11:55.927Z,12.7
2019-05-22T00:22:10.698Z,12.8
2019-05-22T00:26:57.825Z,12.8
2019-05-22T00:31:44.704Z,12.8
2019-05-22T00:42:16.304Z,12.8
2019-05-22T00:47:03.236Z,12.8
2019-05-22T00:51:50.624Z,12.9
2019-05-22T01:02:07.889Z,12.9
2019-05-22T01:06:54.815Z,12.9
2019-05-22T01:11:41.866Z,12.9
2019-05-22T01:21:25.542Z,13
2019-05-22T01:26:13.237Z,13
2019-05-22T01:31:00.590Z,13
2019-05-22T01:40:31.270Z,13
2019-05-22T01:45:19.097Z,13.1
2019-05-22T01:50:07.226Z,13.1
2019-05-22T01:57:46.262Z,13.1
2019-05-22T02:02:33.612Z,13.1
2019-05-22T02:07:21.296Z,13.2
2019-05-22T02:15:01.444Z,13.2
2019-05-22T02:19:50.756Z,13.2
2019-05-22T02:24:37.788Z,13.2
2019-05-22T02:33:36.893Z,13.3
2019-05-22T02:38:25.354Z,13.3
2019-05-22T02:43:12.673Z,13.3
2019-05-22T02:52:37.833Z,13.3
2019-05-22T02:57:25.079Z,13.3
2019-05-22T03:02:13.011Z,13.2
2019-05-22T03:10:54.591Z,13.3
2019-05-22T03:15:41.753Z,13.2
2019-05-22T03:20:28.496Z,13.2
2019-05-22T03:28:55.120Z,13.2
2019-05-22T03:33:42.192Z,13.2
2019-05-22T03:38:29.291Z,13.2
2019-05-22T03:46:24.133Z,13.2
2019-05-22T03:51:10.963Z,13.1
2019-05-22T03:55:58.412Z,13.1
2019-05-22T04:02:20.710Z,13.1
2019-05-22T04:07:10.193Z,13.1
2019-05-22T04:11:57.454Z,13
2019-05-22T04:21:09.142Z,13
2019-05-22T04:25:57.099Z,13
2019-05-22T04:30:44.978Z,13
2019-05-22T04:36:34.118Z,13
2019-05-22T04:41:21.269Z,13
2019-05-22T04:46:08.216Z,12.9
2019-05-22T04:54:24.201Z,13
2019-05-22T04:59:10.979Z,13
2019-05-22T05:03:58.145Z,12.9
2019-05-22T05:10:18.849Z,13
2019-05-22T05:15:05.910Z,13
2019-05-22T05:19:53.383Z,13
2019-05-22T05:28:03.138Z,13
2019-05-22T05:32:50.580Z,13
2019-05-22T05:37:39.588Z,13
2019-05-22T05:45:57.582Z,13.1
2019-05-22T05:50:44.894Z,13.1
2019-05-22T05:55:31.760Z,13.1
2019-05-22T06:03:58.480Z,13.2
2019-05-22T06:08:48.159Z,13.2
2019-05-22T06:13:35.540Z,13.3
2019-05-22T06:22:05.850Z,13.4
2019-05-22T06:26:52.978Z,13.4
2019-05-22T06:31:40.287Z,13.5
2019-05-22T06:39:54.155Z,13.6
2019-05-22T06:44:42.830Z,13.7
2019-05-22T06:49:30.035Z,13.7
2019-05-22T06:57:48.870Z,13.9
2019-05-22T07:02:36.159Z,13.9
2019-05-22T07:07:23.069Z,14
2019-05-22T07:15:17.909Z,14.1
2019-05-22T07:20:04.770Z,14.2
2019-05-22T07:24:52.212Z,14.3
2019-05-22T07:30:26.429Z,14.4
2019-05-22T07:35:13.722Z,14.5
2019-05-22T07:40:00.434Z,14.5
2019-05-22T07:48:27.958Z,14.7
2019-05-22T07:53:15.206Z,14.7
2019-05-22T07:58:02.232Z,14.8
2019-05-22T08:05:44.440Z,14.9
2019-05-22T08:10:31.692Z,15
2019-05-22T08:15:19.116Z,15
2019-05-22T08:21:09.798Z,15.2
2019-05-22T08:25:56.834Z,15.2
2019-05-22T08:30:44.071Z,15.3
2019-05-22T08:39:46.371Z,15.5
2019-05-22T08:44:34.861Z,15.6
2019-05-22T08:49:22.251Z,15.7
2019-05-22T08:57:13.729Z,15.9
2019-05-22T09:02:00.838Z,16
2019-05-22T09:06:47.665Z,16.1
2019-05-22T09:14:26.145Z,16.3
2019-05-22T09:19:14.484Z,16.3
2019-05-22T09:24:03.381Z,16.4
2019-05-22T09:31:25.920Z,16.5
2019-05-22T09:36:12.957Z,16.6
2019-05-22T09:40:59.994Z,16.7
2019-05-22T09:49:29.194Z,16.9
2019-05-22T09:54:16.595Z,16.9
2019-05-22T09:59:04.082Z,17
2019-05-22T10:07:25.010Z,17.1
2019-05-22T10:12:12.171Z,17.2
2019-05-22T10:16:59.260Z,17.3
2019-05-22T10:26:34.777Z,17.4
2019-05-22T10:31:22.207Z,17.4
2019-05-22T10:36:10.061Z,17.5
2019-05-22T10:40:59.143Z,17.5
2019-05-22T10:46:18.211Z,17.6
2019-05-22T10:51:06.297Z,17.6
2019-05-22T10:55:53.347Z,17.7
2019-05-22T11:00:40.685Z,17.7
2019-05-22T11:05:27.729Z,17.8
2019-05-22T11:13:40.253Z,17.8
2019-05-22T11:18:27.916Z,17.9
2019-05-22T11:23:16.109Z,17.9
2019-05-22T11:28:03.259Z,18
2019-05-22T11:32:50.167Z,18
2019-05-22T11:37:37.369Z,18
2019-05-22T11:43:42.846Z,18.1
2019-05-22T11:48:29.787Z,18.1
2019-05-22T11:53:16.494Z,18.1
2019-05-22T11:58:03.896Z,18.2
2019-05-22T12:02:51.169Z,18.2
2019-05-22T12:07:38.033Z,18.2
2019-05-22T12:12:44.982Z,18.3
2019-05-22T12:17:38.301Z,18.3
2019-05-22T12:22:26.441Z,18.3
2019-05-22T12:27:13.749Z,18.4
2019-05-22T12:32:00.749Z,18.4
2019-05-22T12:37:55.507Z,18.4
2019-05-22T12:42:43.142Z,18.5
2019-05-22T12:47:30.019Z,18.5
2019-05-22T12:52:17.253Z,18.5
2019-05-22T12:57:04.118Z,18.6
2019-05-22T13:02:07.119Z,18.6
2019-05-22T13:06:54.270Z,18.6
2019-05-22T13:11:42.091Z,18.6
2019-05-22T13:16:29.147Z,18.7
2019-05-22T13:21:15.957Z,18.7
2019-05-22T13:26:04.803Z,18.7
2019-05-22T13:30:52.220Z,18.7
2019-05-22T13:35:39.011Z,18.7
2019-05-22T13:40:27.942Z,18.8
2019-05-22T13:45:28.536Z,18.8
2019-05-22T13:50:17.608Z,18.8
2019-05-22T13:55:04.423Z,18.8
2019-05-22T13:59:51.509Z,18.8
2019-05-22T14:04:38.893Z,18.8
2019-05-22T14:09:26.198Z,18.8
2019-05-22T14:14:13.342Z,18.8
2019-05-22T14:19:00.190Z,18.8
2019-05-22T14:23:47.224Z,18.8
2019-05-22T14:28:34.682Z,18.8
2019-05-22T14:33:40.668Z,18.9
2019-05-22T14:38:27.993Z,18.9
2019-05-22T14:43:16.034Z,18.9
2019-05-22T14:48:03.355Z,18.8
2019-05-22T14:52:50.227Z,18.8
2019-05-22T14:57:37.179Z,18.8
2019-05-22T15:02:26.685Z,18.8
2019-05-22T15:08:01.524Z,18.8
2019-05-22T15:12:50.998Z,18.8
2019-05-22T15:17:38.754Z,18.8
2019-05-22T15:22:26.851Z,18.8
2019-05-22T15:27:15.335Z,18.8
2019-05-22T15:32:04.389Z,18.8
2019-05-22T15:36:52.019Z,18.8
2019-05-22T15:43:34.226Z,18.8
2019-05-22T15:48:21.676Z,18.8
2019-05-22T15:53:10.974Z,18.9
2019-05-22T16:00:09.760Z,18.9
2019-05-22T16:04:58.110Z,18.9
2019-05-22T16:09:45.161Z,18.9
2019-05-22T16:18:11.629Z,18.9
2019-05-22T16:22:59.647Z,18.9
2019-05-22T16:27:46.849Z,18.9
2019-05-22T16:37:11.349Z,19
2019-05-22T16:42:00.122Z,19
2019-05-22T16:52:08.687Z,19
2019-05-22T16:56:55.575Z,19
2019-05-22T17:05:44.351Z,19
2019-05-22T17:10:31.859Z,18.5
2019-05-22T17:19:02.414Z,18.5
2019-05-22T17:23:50.491Z,18.6
2019-05-22T17:32:19.669Z,18.6
2019-05-22T17:37:06.956Z,18.6
2019-05-22T17:45:36.572Z,18.5
2019-05-22T17:50:27.228Z,18.5
2019-05-22T17:59:48.241Z,18.5
2019-05-22T18:04:37.227Z,18.5
2019-05-22T18:09:24.601Z,18.6
2019-05-22T18:17:43.137Z,18.6
2019-05-22T18:22:30.275Z,18.6
2019-05-22T18:27:17.962Z,18.6
2019-05-22T18:33:54.957Z,18.6
2019-05-22T18:38:43.071Z,18.6
2019-05-22T18:43:30.515Z,18.6
2019-05-22T18:51:42.251Z,18.6
2019-05-22T18:56:30.675Z,18.6
2019-05-22T19:01:17.708Z,18.5
2019-05-22T19:08:54.181Z,18.5
2019-05-22T19:13:42.145Z,18.5
2019-05-22T19:18:29.309Z,18.5
2019-05-22T19:27:30.226Z,18.5
2019-05-22T19:32:17.032Z,18.5
2019-05-22T19:37:03.875Z,18.5
2019-05-22T19:46:51.872Z,18.5
2019-05-22T19:51:40.744Z,18.4
2019-05-22T19:56:28.697Z,18.4
2019-05-22T20:05:15.460Z,18.4
2019-05-22T20:10:02.880Z,18.4
2019-05-22T20:14:50.169Z,18.4
2019-05-22T20:22:15.885Z,18.4
2019-05-22T20:27:03.109Z,18.3
2019-05-22T20:31:51.151Z,18.3
2019-05-22T20:38:12.910Z,18.3
2019-05-22T20:42:59.967Z,18.3
2019-05-22T20:47:48.801Z,18.2
2019-05-22T20:55:44.768Z,18.2
2019-05-22T21:00:33.086Z,18.2
2019-05-22T21:05:21.996Z,18.1
2019-05-22T21:12:35.623Z,18.1
2019-05-22T21:17:24.127Z,18.1
2019-05-22T21:22:11.845Z,18
2019-05-22T21:30:38.638Z,18
2019-05-22T21:35:26.589Z,18
2019-05-22T21:40:13.744Z,18
2019-05-22T21:49:11.707Z,17.9
2019-05-22T21:53:59.501Z,17.9
2019-05-22T21:58:46.911Z,17.9
2019-05-22T22:06:59.841Z,17.8
2019-05-22T22:11:47.254Z,17.8
2019-05-22T22:16:33.968Z,17.8
2019-05-22T22:24:29.974Z,17.7
2019-05-22T22:29:16.935Z,17.7
2019-05-22T22:34:03.849Z,17.7
2019-05-22T22:42:52.923Z,17.7
2019-05-22T22:47:42.109Z,17.6
2019-05-22T22:52:30.302Z,17.6
2019-05-22T23:00:54.162Z,17.6
2019-05-22T23:05:41.282Z,17.6
2019-05-22T23:10:28.372Z,17.6
2019-05-22T23:19:28.840Z,17.5
2019-05-22T23:24:15.589Z,17.5
2019-05-22T23:29:02.310Z,17.5
2019-05-22T23:36:11.901Z,17.5
2019-05-22T23:40:58.889Z,17.5
2019-05-22T23:45:45.681Z,17.5
2019-05-22T23:53:40.835Z,17.5
2019-05-22T23:58:29.555Z,17.5
